KHGR/HGR METAR and TAF weather

Enter ICAO airport designator
Station Type Date Time Source
KHGR METAR 2019/08/26 06:53 UTC NOAA

KHGR 260653Z AUTO 00000KT 10SM CLR 17/12 A3020 RMK AO2 SLP232 T01670122


Station Type Date Time Source
KHGR Decoded METAR 2019/08/26 06:53 UTC NOAA

Station name not available
Aug 26, 2019 - 02:53 AM EDT / 2019.08.26 0653 UTC
Wind: Calm:0
Visibility: 10 mile(s):0
Sky conditions: clear
Temperature: 62.1 F (16.7 C)
Dew Point: 54.0 F (12.2 C)
Relative Humidity: 74%
Pressure (altimeter): 30.2 in. Hg (1022 hPa)
ob: KHGR 260653Z AUTO 00000KT 10SM CLR 17/12 A3020 RMK AO2 SLP232 T01670122
cycle: 7

Station Type Date Time Source
KHGR TAF UTC NOAA

Error!

Example: see airport list